createdAt,value
2018-01-14T00:01:28.631Z,48.68
2018-01-14T00:03:55.143Z,48.70
2018-01-14T00:06:21.358Z,48.71
2018-01-14T00:08:47.553Z,48.70
2018-01-14T00:11:13.776Z,48.66
2018-01-14T00:13:39.953Z,48.63
2018-01-14T00:16:06.156Z,48.65
2018-01-14T00:18:32.417Z,48.64
2018-01-14T00:20:58.898Z,48.70
2018-01-14T00:23:25.064Z,48.71
2018-01-14T00:25:51.288Z,48.73
2018-01-14T00:28:17.476Z,48.70
2018-01-14T00:30:43.686Z,48.71
2018-01-14T00:33:09.966Z,48.73
2018-01-14T00:35:36.182Z,48.65
2018-01-14T00:38:02.361Z,48.62
2018-01-14T00:40:28.588Z,48.66
2018-01-14T00:42:54.809Z,48.64
2018-01-14T00:45:21.043Z,48.67
2018-01-14T00:47:47.325Z,48.64
2018-01-14T00:50:13.492Z,48.56
2018-01-14T00:52:39.974Z,48.55
2018-01-14T00:55:06.244Z,48.56
2018-01-14T00:57:32.417Z,48.62
2018-01-14T00:59:58.617Z,48.64
2018-01-14T01:02:24.840Z,48.63
2018-01-14T01:04:51.050Z,48.62
2018-01-14T01:07:17.225Z,48.56
2018-01-14T01:09:43.802Z,48.53
2018-01-14T01:12:10.001Z,48.51
2018-01-14T01:14:36.228Z,48.52
2018-01-14T01:17:02.819Z,48.53
2018-01-14T01:19:28.988Z,48.60
2018-01-14T01:21:55.194Z,48.61
2018-01-14T01:24:21.457Z,48.56
2018-01-14T01:26:47.672Z,48.50
2018-01-14T01:29:13.865Z,48.47
2018-01-14T01:31:40.353Z,48.49
2018-01-14T01:34:06.596Z,48.52
2018-01-14T01:36:32.795Z,48.55
2018-01-14T01:38:59.376Z,48.54
2018-01-14T01:41:25.865Z,48.52
2018-01-14T01:43:52.397Z,48.48
2018-01-14T01:46:18.981Z,48.46
2018-01-14T01:48:45.169Z,48.46
2018-01-14T01:51:11.362Z,48.45
2018-01-14T01:53:37.612Z,48.46
2018-01-14T01:56:03.816Z,48.50
2018-01-14T01:58:30.009Z,48.53
2018-01-14T02:03:27.924Z,48.48
2018-01-14T02:05:54.202Z,48.49
2018-01-14T02:08:20.404Z,48.47
2018-01-14T02:10:46.622Z,48.45
2018-01-14T02:13:12.845Z,48.45
2018-01-14T02:15:39.024Z,48.50
2018-01-14T02:18:05.327Z,48.54
2018-01-14T02:20:31.537Z,48.52
2018-01-14T02:22:57.708Z,48.50
2018-01-14T02:25:24.215Z,48.50
2018-01-14T02:27:50.752Z,48.51
2018-01-14T02:30:17.461Z,48.52
2018-01-14T02:32:43.660Z,48.50
2018-01-14T02:35:09.856Z,48.46
2018-01-14T02:37:43.053Z,48.46
2018-01-14T02:40:09.881Z,48.43
2018-01-14T02:42:36.081Z,48.44
2018-01-14T02:45:02.305Z,48.46
2018-01-14T02:47:28.579Z,48.45
2018-01-14T02:49:54.760Z,48.41
2018-01-14T02:52:20.962Z,48.48
2018-01-14T02:54:47.512Z,48.49
2018-01-14T02:57:13.726Z,48.43
2018-01-14T02:59:39.913Z,48.38
2018-01-14T03:02:06.184Z,48.38
2018-01-14T03:04:32.776Z,48.33
2018-01-14T03:06:59.003Z,48.34
2018-01-14T03:09:25.251Z,48.38
2018-01-14T03:11:51.452Z,48.44
2018-01-14T03:14:17.652Z,48.40
2018-01-14T03:16:44.224Z,48.37
2018-01-14T03:19:10.450Z,48.33
2018-01-14T03:21:37.160Z,48.28
2018-01-14T03:24:03.323Z,48.28
2018-01-14T03:26:29.592Z,48.36
2018-01-14T03:28:55.843Z,48.38
2018-01-14T03:31:22.022Z,48.35
2018-01-14T03:33:48.231Z,48.31
2018-01-14T03:36:14.455Z,48.24
2018-01-14T03:38:40.644Z,48.23
2018-01-14T03:41:06.835Z,48.24
2018-01-14T03:43:33.082Z,48.23
2018-01-14T03:45:59.679Z,48.27
2018-01-14T03:48:25.889Z,48.25
2018-01-14T03:50:52.123Z,48.18
2018-01-14T03:53:18.320Z,48.21
2018-01-14T03:55:44.607Z,48.22
2018-01-14T03:58:10.883Z,48.23
2018-01-14T04:00:37.050Z,48.21
2018-01-14T04:03:03.256Z,48.21
2018-01-14T04:05:29.808Z,48.22
2018-01-14T04:07:55.993Z,48.21
2018-01-14T04:10:22.236Z,48.20
2018-01-14T04:12:49.741Z,48.19
2018-01-14T04:15:15.945Z,48.22
2018-01-14T04:17:42.559Z,48.25
2018-01-14T04:20:08.723Z,48.26
2018-01-14T04:22:35.254Z,48.23
2018-01-14T04:25:01.496Z,48.20
2018-01-14T04:27:27.672Z,48.19
2018-01-14T04:29:54.200Z,48.20
2018-01-14T04:32:20.372Z,48.21
2018-01-14T04:34:46.544Z,48.17
2018-01-14T04:37:12.776Z,48.18
2018-01-14T04:39:38.935Z,48.12
2018-01-14T04:42:05.145Z,48.14
2018-01-14T04:44:31.757Z,48.08
2018-01-14T04:46:57.944Z,48.06
2018-01-14T04:49:24.152Z,48.06
2018-01-14T04:51:50.415Z,48.05
2018-01-14T04:54:16.633Z,48.09
2018-01-14T04:56:42.840Z,48.08
2018-01-14T04:59:09.090Z,48.02
2018-01-14T05:01:35.314Z,48.03
2018-01-14T05:04:01.525Z,48.02
2018-01-14T05:06:27.756Z,48.08
2018-01-14T05:08:53.948Z,48.09
2018-01-14T05:11:20.160Z,48.05
2018-01-14T05:13:46.826Z,48.03
2018-01-14T05:16:13.004Z,47.99
2018-01-14T05:18:39.209Z,47.99
2018-01-14T05:21:05.459Z,47.96
2018-01-14T05:23:31.634Z,47.98
2018-01-14T05:25:57.813Z,47.99
2018-01-14T05:28:24.067Z,47.98
2018-01-14T05:30:50.269Z,47.91
2018-01-14T05:33:16.793Z,47.79
2018-01-14T05:35:43.049Z,47.79
2018-01-14T05:38:09.220Z,47.80
2018-01-14T05:40:35.393Z,47.78
2018-01-14T05:43:01.642Z,47.76
2018-01-14T05:45:27.849Z,47.80
2018-01-14T05:47:54.057Z,47.82
2018-01-14T05:50:20.304Z,47.83
2018-01-14T05:52:46.501Z,47.83
2018-01-14T05:55:12.732Z,47.88
2018-01-14T05:57:38.926Z,47.87
2018-01-14T06:00:05.212Z,47.86
2018-01-14T06:02:31.727Z,47.82
2018-01-14T06:04:58.268Z,47.83
2018-01-14T06:07:31.459Z,47.86
2018-01-14T06:09:57.993Z,47.86
2018-01-14T06:12:24.183Z,47.88
2018-01-14T06:14:50.520Z,47.90
2018-01-14T06:17:16.980Z,47.89
2018-01-14T06:19:43.187Z,47.91
2018-01-14T06:22:09.817Z,47.92
2018-01-14T06:24:36.105Z,47.90
2018-01-14T06:27:02.312Z,47.87
2018-01-14T06:29:28.843Z,47.84
2018-01-14T06:31:55.032Z,47.83
2018-01-14T06:34:21.212Z,47.85
2018-01-14T06:36:47.469Z,47.85
2018-01-14T06:39:13.685Z,47.82
2018-01-14T06:41:39.863Z,47.79
2018-01-14T06:44:06.502Z,47.80
2018-01-14T06:46:32.688Z,47.87
2018-01-14T06:48:58.880Z,47.83
2018-01-14T06:51:25.409Z,47.79
2018-01-14T06:53:51.673Z,47.76
2018-01-14T06:56:18.167Z,47.73
2018-01-14T06:58:44.372Z,47.74
2018-01-14T07:01:10.575Z,47.74
2018-01-14T07:03:37.098Z,47.75
2018-01-14T07:06:03.276Z,47.72
2018-01-14T07:08:29.504Z,47.70
2018-01-14T07:10:56.121Z,47.67
2018-01-14T07:13:22.297Z,47.69
2018-01-14T07:15:48.489Z,47.73
2018-01-14T07:18:14.725Z,47.75
2018-01-14T07:20:40.936Z,47.70
2018-01-14T07:23:07.501Z,47.66
2018-01-14T07:25:34.035Z,47.71
2018-01-14T07:28:00.266Z,47.65
2018-01-14T07:30:26.799Z,47.67
2018-01-14T07:32:53.013Z,47.68
2018-01-14T07:35:19.325Z,47.64
2018-01-14T07:37:45.996Z,47.66
2018-01-14T07:40:12.537Z,47.66
2018-01-14T07:42:38.752Z,47.64
2018-01-14T07:45:05.093Z,47.62
2018-01-14T07:47:31.628Z,47.60
2018-01-14T07:49:58.159Z,47.56
2018-01-14T07:52:24.374Z,47.55
2018-01-14T07:54:50.547Z,47.57
2018-01-14T07:57:16.792Z,47.62
2018-01-14T07:59:43.279Z,47.61
2018-01-14T08:02:09.549Z,47.56
2018-01-14T08:04:35.785Z,47.50
2018-01-14T08:07:01.980Z,47.54
2018-01-14T08:09:28.180Z,47.49
2018-01-14T08:11:54.435Z,47.46
2018-01-14T08:14:20.627Z,47.44
2018-01-14T08:16:46.821Z,47.44
2018-01-14T08:19:13.037Z,47.38
2018-01-14T08:21:39.256Z,47.42
2018-01-14T08:24:05.758Z,47.43
2018-01-14T08:26:32.005Z,47.42
2018-01-14T08:28:58.234Z,47.40
2018-01-14T08:31:24.440Z,47.37
2018-01-14T08:33:50.988Z,47.32
2018-01-14T08:36:24.261Z,47.35
2018-01-14T08:38:50.811Z,47.39
2018-01-14T08:41:17.015Z,47.38
2018-01-14T08:43:43.217Z,47.40
2018-01-14T08:46:09.433Z,47.38
2018-01-14T08:48:35.696Z,47.36
2018-01-14T08:51:01.905Z,47.43
2018-01-14T08:53:28.152Z,47.43
2018-01-14T08:55:54.417Z,47.37
2018-01-14T08:58:20.633Z,47.32
2018-01-14T09:00:46.815Z,47.27
2018-01-14T09:03:13.076Z,47.21
2018-01-14T09:05:39.280Z,47.15
2018-01-14T09:08:05.490Z,47.14
2018-01-14T09:10:31.748Z,47.14
2018-01-14T09:12:58.213Z,47.06
2018-01-14T09:15:24.428Z,47.09
2018-01-14T09:17:50.746Z,47.07
2018-01-14T09:20:16.952Z,47.09
2018-01-14T09:22:43.138Z,47.05
2018-01-14T09:25:09.696Z,47.07
2018-01-14T09:27:35.920Z,47.02
2018-01-14T09:30:02.426Z,47.02
2018-01-14T09:32:29.264Z,46.98
2018-01-14T09:34:55.488Z,46.95
2018-01-14T09:37:21.697Z,46.87
2018-01-14T09:39:47.981Z,46.85
2018-01-14T09:42:14.588Z,46.78
2018-01-14T09:44:40.768Z,46.68
2018-01-14T09:47:07.111Z,46.75
2018-01-14T09:49:33.352Z,46.78
2018-01-14T09:51:59.551Z,46.76
2018-01-14T09:54:25.797Z,46.72
2018-01-14T09:56:52.000Z,46.69
2018-01-14T09:59:18.220Z,46.67
2018-01-14T10:01:44.828Z,46.65
2018-01-14T10:04:11.013Z,46.59
2018-01-14T10:06:37.471Z,46.50
2018-01-14T10:09:03.796Z,46.47
2018-01-14T10:11:29.980Z,46.48
2018-01-14T10:13:56.155Z,46.51
2018-01-14T10:16:22.388Z,46.48
2018-01-14T10:18:48.591Z,46.41
2018-01-14T10:21:14.812Z,46.38
2018-01-14T10:23:41.085Z,46.36
2018-01-14T10:26:07.306Z,46.35
2018-01-14T10:28:33.496Z,46.37
2018-01-14T10:31:00.072Z,46.34
2018-01-14T10:33:26.276Z,46.23
2018-01-14T10:35:52.476Z,46.10
2018-01-14T10:38:18.813Z,46.07
2018-01-14T10:40:45.090Z,46.02
2018-01-14T10:43:11.292Z,45.99
2018-01-14T10:45:37.494Z,45.91
2018-01-14T10:48:03.728Z,45.80
2018-01-14T10:50:30.022Z,45.77
2018-01-14T10:52:56.305Z,45.76
2018-01-14T10:55:22.486Z,45.74
2018-01-14T10:57:48.990Z,45.69
2018-01-14T11:00:15.212Z,45.64
2018-01-14T11:02:41.508Z,45.63
2018-01-14T11:05:07.738Z,45.67
2018-01-14T11:07:33.973Z,45.72
2018-01-14T11:10:00.181Z,45.80
2018-01-14T11:12:26.377Z,45.85
2018-01-14T11:14:52.657Z,45.91
2018-01-14T11:17:18.865Z,45.99
2018-01-14T11:19:45.081Z,45.99
2018-01-14T11:22:11.316Z,45.97
2018-01-14T11:24:37.524Z,46.01
2018-01-14T11:27:04.037Z,46.05
2018-01-14T11:29:39.381Z,46.08
2018-01-14T11:32:05.614Z,46.16
2018-01-14T11:34:31.796Z,46.16
2018-01-14T11:36:58.273Z,46.14
2018-01-14T11:39:24.843Z,46.15
2018-01-14T11:41:51.334Z,46.17
2018-01-14T11:44:17.541Z,46.17
2018-01-14T11:46:43.787Z,46.20
2018-01-14T11:49:10.332Z,46.23
2018-01-14T11:51:36.639Z,46.27
2018-01-14T11:54:02.887Z,46.36
2018-01-14T11:56:29.085Z,46.36
2018-01-14T11:58:55.549Z,46.38
2018-01-14T12:01:21.800Z,46.36
2018-01-14T12:03:48.317Z,46.38
2018-01-14T12:06:14.553Z,46.44
2018-01-14T12:08:40.770Z,46.49
2018-01-14T12:11:06.956Z,46.46
2018-01-14T12:13:33.571Z,46.44
2018-01-14T12:15:59.773Z,46.43
2018-01-14T12:18:25.979Z,46.45
2018-01-14T12:20:52.208Z,46.44
2018-01-14T12:23:18.410Z,46.38
2018-01-14T12:25:44.614Z,46.39
2018-01-14T12:28:10.850Z,46.36
2018-01-14T12:30:44.280Z,46.36
2018-01-14T12:33:10.516Z,46.28
2018-01-14T12:35:36.782Z,46.25
2018-01-14T12:38:02.994Z,46.12
2018-01-14T12:40:29.173Z,46.04
2018-01-14T12:42:55.433Z,45.94
2018-01-14T12:45:21.626Z,45.87
2018-01-14T12:47:47.849Z,45.87
2018-01-14T12:50:14.130Z,45.85
2018-01-14T12:52:40.411Z,45.83
2018-01-14T12:55:06.645Z,45.77
2018-01-14T12:57:32.894Z,45.76
2018-01-14T12:59:59.106Z,45.76
2018-01-14T13:02:25.290Z,45.75
2018-01-14T13:04:51.538Z,45.78
2018-01-14T13:07:17.718Z,45.72
2018-01-14T13:09:43.892Z,45.71
2018-01-14T13:12:10.082Z,45.70
2018-01-14T13:14:36.644Z,45.69
2018-01-14T13:17:02.817Z,45.70
2018-01-14T13:19:28.991Z,45.75
2018-01-14T13:21:55.271Z,45.72
2018-01-14T13:24:21.452Z,45.76
2018-01-14T13:26:47.952Z,45.77
2018-01-14T13:29:14.217Z,45.71
2018-01-14T13:31:40.428Z,45.69
2018-01-14T13:34:06.980Z,45.67
2018-01-14T13:36:33.552Z,45.70
2018-01-14T13:38:59.733Z,45.69
2018-01-14T13:41:25.908Z,45.67
2018-01-14T13:43:52.164Z,45.70
2018-01-14T13:46:18.372Z,45.74
2018-01-14T13:48:44.997Z,45.71
2018-01-14T13:51:11.213Z,45.78
2018-01-14T13:53:37.514Z,45.84
2018-01-14T13:56:04.024Z,45.86
2018-01-14T13:58:30.556Z,45.91
2018-01-14T14:00:56.786Z,45.91
2018-01-14T14:03:23.082Z,45.92
2018-01-14T14:05:49.660Z,45.87
2018-01-14T14:08:15.873Z,45.92
2018-01-14T14:10:42.415Z,45.94
2018-01-14T14:13:08.625Z,45.95
2018-01-14T14:15:34.839Z,46.04
2018-01-14T14:18:01.074Z,46.06
2018-01-14T14:20:27.538Z,46.08
2018-01-14T14:22:53.725Z,46.09
2018-01-14T14:25:20.268Z,46.10
2018-01-14T14:27:46.460Z,46.19
2018-01-14T14:30:12.654Z,46.22
2018-01-14T14:32:38.907Z,46.26
2018-01-14T14:35:05.115Z,46.30
2018-01-14T14:37:31.359Z,46.32
2018-01-14T14:39:57.580Z,46.40
2018-01-14T14:42:23.882Z,46.41
2018-01-14T14:47:22.898Z,46.54
2018-01-14T14:49:49.065Z,46.59
2018-01-14T14:52:15.672Z,46.64
2018-01-14T14:54:41.987Z,46.68
2018-01-14T14:57:08.168Z,46.70
2018-01-14T14:59:34.401Z,46.72
2018-01-14T15:02:00.584Z,46.74
2018-01-14T15:04:26.760Z,46.80
2018-01-14T15:06:53.005Z,46.86
2018-01-14T15:09:19.225Z,46.91
2018-01-14T15:11:45.456Z,46.94
2018-01-14T15:14:11.695Z,46.99
2018-01-14T15:16:37.884Z,46.94
2018-01-14T15:19:04.589Z,46.96
2018-01-14T15:21:30.792Z,47.00
2018-01-14T15:23:57.084Z,47.05
2018-01-14T15:26:23.345Z,47.10
2018-01-14T15:28:49.559Z,47.14
2018-01-14T15:31:15.773Z,47.21
2018-01-14T15:36:13.987Z,47.27
2018-01-14T15:38:40.225Z,47.30
2018-01-14T15:41:06.681Z,47.32
2018-01-14T15:43:33.255Z,47.31
2018-01-14T15:45:59.465Z,47.37
2018-01-14T15:48:25.653Z,47.42
2018-01-14T15:50:51.882Z,47.50
2018-01-14T15:53:25.097Z,47.54
2018-01-14T15:55:51.629Z,47.54
2018-01-14T15:58:18.168Z,47.52
2018-01-14T16:00:44.356Z,47.47
2018-01-14T16:03:10.555Z,47.45
2018-01-14T16:05:36.804Z,47.46
2018-01-14T16:08:02.993Z,47.51
2018-01-14T16:10:29.165Z,47.56
2018-01-14T16:12:55.380Z,47.57
2018-01-14T16:15:21.576Z,47.60
2018-01-14T16:17:48.128Z,47.55
2018-01-14T16:20:14.320Z,47.59
2018-01-14T16:22:40.540Z,47.52
2018-01-14T16:25:07.537Z,47.54
2018-01-14T16:27:33.736Z,47.52
2018-01-14T16:29:59.940Z,47.47
2018-01-14T16:32:26.156Z,47.48
2018-01-14T16:34:52.421Z,47.50
2018-01-14T16:37:18.629Z,47.55
2018-01-14T16:39:44.868Z,47.60
2018-01-14T16:42:11.295Z,47.63
2018-01-14T16:44:37.510Z,47.61
2018-01-14T16:47:04.104Z,47.61
2018-01-14T16:49:30.309Z,47.62
2018-01-14T16:51:56.496Z,47.67
2018-01-14T16:54:22.724Z,47.66
2018-01-14T16:56:48.971Z,47.61
2018-01-14T16:59:15.206Z,47.66
2018-01-14T17:01:41.460Z,47.63
2018-01-14T17:04:07.684Z,47.63
2018-01-14T17:06:34.008Z,47.63
2018-01-14T17:09:00.223Z,47.58
2018-01-14T17:11:26.521Z,47.62
2018-01-14T17:13:53.121Z,47.66
2018-01-14T17:16:19.310Z,47.68
2018-01-14T17:18:45.501Z,47.73
2018-01-14T17:21:11.755Z,47.74
2018-01-14T17:23:37.967Z,47.74
2018-01-14T17:26:04.189Z,47.70
2018-01-14T17:28:30.394Z,47.70
2018-01-14T17:30:56.629Z,47.73
2018-01-14T17:33:22.885Z,47.73
2018-01-14T17:35:49.083Z,47.72
2018-01-14T17:38:15.752Z,47.71
2018-01-14T17:40:41.950Z,47.66
2018-01-14T17:43:08.140Z,47.67
2018-01-14T17:45:34.623Z,47.68
2018-01-14T17:48:00.800Z,47.60
2018-01-14T17:50:27.325Z,47.56
2018-01-14T17:52:53.600Z,47.59
2018-01-14T17:55:19.797Z,47.62
2018-01-14T17:57:46.052Z,47.62
2018-01-14T18:00:12.409Z,47.64
2018-01-14T18:02:38.597Z,47.63
2018-01-14T18:05:04.820Z,47.64
2018-01-14T18:07:31.057Z,47.62
2018-01-14T18:09:57.228Z,47.64
2018-01-14T18:12:23.473Z,47.62
2018-01-14T18:14:49.677Z,47.67
2018-01-14T18:17:24.480Z,47.66
2018-01-14T18:19:50.652Z,47.65
2018-01-14T18:22:16.856Z,47.68
2018-01-14T18:24:43.146Z,47.68
2018-01-14T18:27:09.355Z,47.67
2018-01-14T18:29:35.887Z,47.64
2018-01-14T18:32:02.225Z,47.66
2018-01-14T18:34:28.508Z,47.64
2018-01-14T18:36:54.816Z,47.68
2018-01-14T18:39:21.078Z,47.68
2018-01-14T18:41:47.533Z,47.67
2018-01-14T18:44:13.712Z,47.67
2018-01-14T18:46:40.229Z,47.67
2018-01-14T18:49:06.417Z,47.66
2018-01-14T18:51:32.609Z,47.65
2018-01-14T18:53:58.932Z,47.56
2018-01-14T18:56:25.148Z,47.61
2018-01-14T18:58:51.348Z,47.63
2018-01-14T19:01:17.592Z,47.61
2018-01-14T19:03:43.820Z,47.58
2018-01-14T19:06:10.001Z,47.53
2018-01-14T19:08:36.221Z,47.53
2018-01-14T19:11:09.261Z,47.54
2018-01-14T19:13:35.480Z,47.60
2018-01-14T19:16:01.740Z,47.59
2018-01-14T19:18:27.949Z,47.62
2018-01-14T19:20:54.152Z,47.64
2018-01-14T19:23:20.679Z,47.58
2018-01-14T19:25:46.849Z,47.57
2018-01-14T19:28:13.044Z,47.60
2018-01-14T19:30:39.279Z,47.60
2018-01-14T19:33:05.482Z,47.66
2018-01-14T19:35:31.689Z,47.68
2018-01-14T19:37:57.956Z,47.63
2018-01-14T19:40:24.379Z,47.61
2018-01-14T19:42:50.599Z,47.57
2018-01-14T19:45:16.865Z,47.56
2018-01-14T19:47:43.046Z,47.59
2018-01-14T19:50:09.258Z,47.63
2018-01-14T19:52:35.831Z,47.64
2018-01-14T19:55:02.369Z,47.66
2018-01-14T19:57:28.899Z,47.61
2018-01-14T19:59:55.329Z,47.57
2018-01-14T20:02:22.281Z,47.53
2018-01-14T20:04:48.497Z,47.59
2018-01-14T20:07:14.704Z,47.64
2018-01-14T20:09:41.685Z,47.57
2018-01-14T20:12:07.864Z,47.52
2018-01-14T20:14:34.035Z,47.53
2018-01-14T20:17:00.609Z,47.51
2018-01-14T20:19:26.820Z,47.51
2018-01-14T20:21:53.032Z,47.54
2018-01-14T20:24:19.553Z,47.57
2018-01-14T20:26:45.764Z,47.57
2018-01-14T20:29:11.931Z,47.58
2018-01-14T20:31:38.458Z,47.58
2018-01-14T20:34:04.641Z,47.57
2018-01-14T20:36:30.940Z,47.56
2018-01-14T20:38:57.132Z,47.63
2018-01-14T20:41:23.704Z,47.62
2018-01-14T20:43:49.889Z,47.62
2018-01-14T20:46:16.092Z,47.64
2018-01-14T20:48:42.373Z,47.65
2018-01-14T20:51:08.582Z,47.65
2018-01-14T20:53:34.861Z,47.63
2018-01-14T20:56:01.380Z,47.63
2018-01-14T20:58:27.572Z,47.60
2018-01-14T21:00:53.743Z,47.62
2018-01-14T21:03:20.006Z,47.57
2018-01-14T21:05:46.225Z,47.52
2018-01-14T21:08:12.714Z,47.53
2018-01-14T21:10:39.040Z,47.58
2018-01-14T21:13:05.252Z,47.59
2018-01-14T21:15:31.553Z,47.54
2018-01-14T21:17:58.117Z,47.56
2018-01-14T21:20:24.316Z,47.57
2018-01-14T21:22:50.565Z,47.50
2018-01-14T21:25:16.804Z,47.50
2018-01-14T21:27:43.008Z,47.53
2018-01-14T21:30:09.253Z,47.58
2018-01-14T21:32:35.424Z,47.59
2018-01-14T21:35:01.589Z,47.57
2018-01-14T21:37:27.867Z,47.54
2018-01-14T21:39:54.043Z,47.49
2018-01-14T21:42:20.599Z,47.50
2018-01-14T21:44:46.768Z,47.50
2018-01-14T21:47:12.956Z,47.51
2018-01-14T21:49:39.228Z,47.55
2018-01-14T21:52:05.404Z,47.45
2018-01-14T21:54:31.604Z,47.46
2018-01-14T21:56:58.121Z,47.44
2018-01-14T21:59:24.612Z,47.42
2018-01-14T22:01:50.816Z,47.48
2018-01-14T22:04:17.271Z,47.48
2018-01-14T22:06:43.440Z,47.58
2018-01-14T22:09:09.700Z,47.57
2018-01-14T22:11:35.921Z,47.56
2018-01-14T22:14:02.108Z,47.59
2018-01-14T22:16:29.025Z,47.52
2018-01-14T22:18:55.214Z,47.43
2018-01-14T22:21:21.428Z,47.42
2018-01-14T22:23:47.701Z,47.44
2018-01-14T22:26:13.899Z,47.56
2018-01-14T22:28:40.080Z,47.45
2018-01-14T22:31:06.286Z,47.40
2018-01-14T22:33:32.486Z,47.46
2018-01-14T22:35:58.752Z,47.43
2018-01-14T22:38:24.983Z,47.41
2018-01-14T22:40:51.179Z,47.44
2018-01-14T22:43:17.437Z,47.45
2018-01-14T22:45:43.967Z,47.46
2018-01-14T22:48:10.505Z,47.50
2018-01-14T22:50:37.041Z,47.43
2018-01-14T22:53:03.616Z,47.43
2018-01-14T22:55:29.916Z,47.38
2018-01-14T22:57:56.094Z,47.36
2018-01-14T23:00:22.669Z,47.39
2018-01-14T23:02:48.880Z,47.41
2018-01-14T23:05:15.092Z,47.49
2018-01-14T23:07:41.655Z,47.50
2018-01-14T23:10:07.825Z,47.44
2018-01-14T23:12:34.027Z,47.44
2018-01-14T23:15:06.303Z,47.43
2018-01-14T23:17:32.474Z,47.41
2018-01-14T23:19:58.721Z,47.41
2018-01-14T23:22:24.964Z,47.47
2018-01-14T23:24:51.508Z,47.39
2018-01-14T23:27:17.697Z,47.38
2018-01-14T23:29:44.262Z,47.36
2018-01-14T23:32:10.805Z,47.38
2018-01-14T23:34:36.968Z,47.33
2018-01-14T23:37:03.459Z,47.31
2018-01-14T23:39:29.672Z,47.36
2018-01-14T23:41:56.224Z,47.39
2018-01-14T23:44:22.729Z,47.34
2018-01-14T23:46:48.931Z,47.36
2018-01-14T23:49:15.152Z,47.39
2018-01-14T23:51:41.417Z,47.40
2018-01-14T23:54:07.605Z,47.39
2018-01-14T23:56:33.837Z,47.34
2018-01-14T23:59:00.041Z,47.30
